Strona główna
METAR-TAF:

METAR-TAF

Lotnisko :

Port lotniczy Johor Bahru-Senai

Johor Bahru, Malezja

Szerokość geograficzna: 01-38N, Długość geograficzna: 103-40E, wysokość: 37 m

Aktualna obserwacja pogody

Raport powstał 56 minut temu, godzina 12:00 UTC
Wiatr 8 kt od wschód
Temperatura 29°C
Wilgotność 79%
Ciśnienie 1006 hPa
Widzialność 10 km lub więcej
Mało chmury na wysokości 1700 ft, Cumulonimbus.

METAR: WMKJ 261200Z 08008KT 9999 FEW017CB 29/25 Q1006

czas: 20:56 (12:56 UTC)

Prognoza

Raport powstał 1 godzina i 56 minut temu, godzina 11:00 UTC
Prognoza ważna od 26 godzina 12 UTC do 27 godzina 12 UTC
Wiatr 6 kt od zachodnio-północny zachód
Widzialność 10 km lub więcej
Mało chmury na wysokości 1800 ft

TAF: WMKJ 261100Z 2612/2712 30006KT 9999 FEW018

Obserwacja i prognoza pogody dla ponad 4000 lotnisk (raport METAR i TAF).

Dostępne stacje oznaczono żółtymi i czerwonymi punktami na mapie.

Najedź kursorem aby zobaczyć nazwę stacji.

Kliknij aby zobaczyć obserwacje i prognozy pogody.

Aby zmienić mapę: kliknij na zielony przycisk z czarnym krzyżykiem, aby powiększyć; na zielony przycisk z myślnikiem, aby pomniejszyć; na zielone strzałki, aby przejść do map sąsiednich.


METAR-TAF: